sensor_id;sensor_type;location;lat;lon;timestamp;P1;durP1;ratioP1;P2;durP2;ratioP2
12151;SDS011;6139;51.274;7.128;2022-09-27T00:00:44;6.68;;;4.05;;
12151;SDS011;6139;51.274;7.128;2022-09-27T00:01:46;5.85;;;3.60;;
12151;SDS011;6139;51.274;7.128;2022-09-27T00:02:49;4.07;;;3.47;;
12151;SDS011;6139;51.274;7.128;2022-09-27T00:03:51;6.10;;;4.00;;
12151;SDS011;6139;51.274;7.128;2022-09-27T00:04:55;4.35;;;3.95;;
12151;SDS011;6139;51.274;7.128;2022-09-27T00:06:01;5.70;;;3.70;;
12151;SDS011;6139;51.274;7.128;2022-09-27T00:07:04;5.95;;;3.75;;
12151;SDS011;6139;51.274;7.128;2022-09-27T00:08:06;4.88;;;3.90;;
12151;SDS011;6139;51.274;7.128;2022-09-27T00:09:08;6.40;;;4.18;;
12151;SDS011;6139;51.274;7.128;2022-09-27T00:10:12;7.18;;;4.55;;
12151;SDS011;6139;51.274;7.128;2022-09-27T00:11:14;6.70;;;4.70;;
12151;SDS011;6139;51.274;7.128;2022-09-27T00:12:23;9.25;;;5.38;;
12151;SDS011;6139;51.274;7.128;2022-09-27T00:13:24;7.28;;;5.40;;
12151;SDS011;6139;51.274;7.128;2022-09-27T00:14:26;9.45;;;5.57;;
12151;SDS011;6139;51.274;7.128;2022-09-27T00:15:27;7.90;;;5.78;;
12151;SDS011;6139;51.274;7.128;2022-09-27T00:16:30;7.60;;;5.50;;
12151;SDS011;6139;51.274;7.128;2022-09-27T00:17:33;8.73;;;5.85;;
12151;SDS011;6139;51.274;7.128;2022-09-27T00:18:35;9.13;;;5.32;;
12151;SDS011;6139;51.274;7.128;2022-09-27T00:19:36;7.70;;;5.80;;
12151;SDS011;6139;51.274;7.128;2022-09-27T00:20:38;9.80;;;4.93;;
12151;SDS011;6139;51.274;7.128;2022-09-27T00:21:39;7.45;;;5.32;;
12151;SDS011;6139;51.274;7.128;2022-09-27T00:22:41;5.60;;;4.50;;
12151;SDS011;6139;51.274;7.128;2022-09-27T00:23:43;7.05;;;4.40;;
12151;SDS011;6139;51.274;7.128;2022-09-27T00:24:45;6.85;;;4.75;;
12151;SDS011;6139;51.274;7.128;2022-09-27T00:25:55;6.97;;;4.35;;
12151;SDS011;6139;51.274;7.128;2022-09-27T00:26:56;6.20;;;4.30;;
12151;SDS011;6139;51.274;7.128;2022-09-27T00:27:58;6.43;;;4.38;;
12151;SDS011;6139;51.274;7.128;2022-09-27T00:28:59;7.60;;;4.07;;
12151;SDS011;6139;51.274;7.128;2022-09-27T00:30:01;7.97;;;4.88;;
12151;SDS011;6139;51.274;7.128;2022-09-27T00:31:03;6.53;;;4.60;;
12151;SDS011;6139;51.274;7.128;2022-09-27T00:32:11;5.55;;;4.43;;
12151;SDS011;6139;51.274;7.128;2022-09-27T00:33:12;6.50;;;4.50;;
12151;SDS011;6139;51.274;7.128;2022-09-27T00:34:17;5.93;;;4.28;;
12151;SDS011;6139;51.274;7.128;2022-09-27T00:35:19;6.43;;;5.18;;
12151;SDS011;6139;51.274;7.128;2022-09-27T00:36:21;4.40;;;4.00;;
12151;SDS011;6139;51.274;7.128;2022-09-27T00:37:23;5.18;;;4.18;;
12151;SDS011;6139;51.274;7.128;2022-09-27T00:38:27;6.22;;;3.92;;
12151;SDS011;6139;51.274;7.128;2022-09-27T00:39:28;7.95;;;4.53;;
12151;SDS011;6139;51.274;7.128;2022-09-27T00:40:31;7.25;;;3.92;;
12151;SDS011;6139;51.274;7.128;2022-09-27T00:41:34;5.22;;;4.00;;
12151;SDS011;6139;51.274;7.128;2022-09-27T00:42:37;6.20;;;4.00;;
12151;SDS011;6139;51.274;7.128;2022-09-27T00:43:42;5.45;;;3.97;;
12151;SDS011;6139;51.274;7.128;2022-09-27T00:45:03;4.10;;;3.70;;
12151;SDS011;6139;51.274;7.128;2022-09-27T00:46:08;4.53;;;3.45;;
12151;SDS011;6139;51.274;7.128;2022-09-27T00:47:10;5.63;;;3.60;;
12151;SDS011;6139;51.274;7.128;2022-09-27T00:48:20;5.25;;;3.83;;
12151;SDS011;6139;51.274;7.128;2022-09-27T00:49:26;5.72;;;3.80;;
12151;SDS011;6139;51.274;7.128;2022-09-27T00:50:32;7.50;;;3.60;;
12151;SDS011;6139;51.274;7.128;2022-09-27T00:51:38;6.15;;;4.10;;
12151;SDS011;6139;51.274;7.128;2022-09-27T00:52:42;7.22;;;4.22;;
12151;SDS011;6139;51.274;7.128;2022-09-27T00:53:51;3.72;;;3.33;;
12151;SDS011;6139;51.274;7.128;2022-09-27T00:54:56;7.47;;;4.05;;
12151;SDS011;6139;51.274;7.128;2022-09-27T00:56:03;9.18;;;3.70;;
12151;SDS011;6139;51.274;7.128;2022-09-27T00:57:09;5.35;;;4.25;;
12151;SDS011;6139;51.274;7.128;2022-09-27T00:58:11;4.37;;;3.67;;
12151;SDS011;6139;51.274;7.128;2022-09-27T00:59:18;6.15;;;3.80;;
12151;SDS011;6139;51.274;7.128;2022-09-27T01:00:24;6.53;;;4.00;;
12151;SDS011;6139;51.274;7.128;2022-09-27T01:01:25;4.50;;;3.53;;
12151;SDS011;6139;51.274;7.128;2022-09-27T01:02:30;4.38;;;3.35;;
12151;SDS011;6139;51.274;7.128;2022-09-27T01:03:33;5.20;;;3.88;;
12151;SDS011;6139;51.274;7.128;2022-09-27T01:04:39;6.82;;;4.05;;
12151;SDS011;6139;51.274;7.128;2022-09-27T01:05:43;5.65;;;3.70;;
12151;SDS011;6139;51.274;7.128;2022-09-27T01:06:45;5.28;;;4.43;;
12151;SDS011;6139;51.274;7.128;2022-09-27T01:07:46;6.97;;;4.50;;
12151;SDS011;6139;51.274;7.128;2022-09-27T01:08:49;5.88;;;4.65;;
12151;SDS011;6139;51.274;7.128;2022-09-27T01:09:50;5.68;;;5.13;;
12151;SDS011;6139;51.274;7.128;2022-09-27T01:10:55;6.47;;;4.85;;
12151;SDS011;6139;51.274;7.128;2022-09-27T01:12:08;8.07;;;5.00;;
12151;SDS011;6139;51.274;7.128;2022-09-27T01:13:22;9.70;;;5.88;;
12151;SDS011;6139;51.274;7.128;2022-09-27T01:14:40;11.65;;;7.82;;
12151;SDS011;6139;51.274;7.128;2022-09-27T01:15:55;9.88;;;6.63;;
12151;SDS011;6139;51.274;7.128;2022-09-27T01:17:04;9.30;;;6.97;;
12151;SDS011;6139;51.274;7.128;2022-09-27T01:18:21;9.82;;;8.07;;
12151;SDS011;6139;51.274;7.128;2022-09-27T01:19:37;12.90;;;9.20;;
12151;SDS011;6139;51.274;7.128;2022-09-27T01:22:33;11.68;;;9.20;;
12151;SDS011;6139;51.274;7.128;2022-09-27T01:23:45;12.27;;;9.52;;
12151;SDS011;6139;51.274;7.128;2022-09-27T01:25:16;13.45;;;10.20;;
12151;SDS011;6139;51.274;7.128;2022-09-27T01:26:52;10.85;;;9.18;;
12151;SDS011;6139;51.274;7.128;2022-09-27T01:28:15;11.70;;;9.45;;
12151;SDS011;6139;51.274;7.128;2022-09-27T01:29:24;16.92;;;10.02;;
12151;SDS011;6139;51.274;7.128;2022-09-27T01:30:37;10.88;;;9.13;;
12151;SDS011;6139;51.274;7.128;2022-09-27T01:31:46;9.93;;;8.93;;
12151;SDS011;6139;51.274;7.128;2022-09-27T01:32:57;10.82;;;8.98;;
12151;SDS011;6139;51.274;7.128;2022-09-27T01:34:10;11.90;;;9.30;;
12151;SDS011;6139;51.274;7.128;2022-09-27T01:35:23;11.73;;;8.30;;
12151;SDS011;6139;51.274;7.128;2022-09-27T01:36:37;9.25;;;7.40;;
12151;SDS011;6139;51.274;7.128;2022-09-27T01:37:47;8.60;;;7.70;;
12151;SDS011;6139;51.274;7.128;2022-09-27T01:38:56;10.20;;;7.68;;
12151;SDS011;6139;51.274;7.128;2022-09-27T01:40:29;9.13;;;7.40;;
12151;SDS011;6139;51.274;7.128;2022-09-27T01:42:03;11.88;;;8.40;;
12151;SDS011;6139;51.274;7.128;2022-09-27T01:43:17;11.38;;;8.63;;
12151;SDS011;6139;51.274;7.128;2022-09-27T01:44:24;10.68;;;8.35;;
12151;SDS011;6139;51.274;7.128;2022-09-27T01:45:41;12.65;;;9.77;;
12151;SDS011;6139;51.274;7.128;2022-09-27T01:46:53;11.05;;;9.50;;
12151;SDS011;6139;51.274;7.128;2022-09-27T01:48:06;13.73;;;10.20;;
12151;SDS011;6139;51.274;7.128;2022-09-27T01:49:30;14.10;;;10.13;;
12151;SDS011;6139;51.274;7.128;2022-09-27T01:50:37;13.48;;;10.38;;
12151;SDS011;6139;51.274;7.128;2022-09-27T01:51:42;14.70;;;10.90;;
12151;SDS011;6139;51.274;7.128;2022-09-27T01:52:49;12.18;;;10.55;;
12151;SDS011;6139;51.274;7.128;2022-09-27T01:54:00;11.50;;;10.02;;
12151;SDS011;6139;51.274;7.128;2022-09-27T01:55:34;13.63;;;10.40;;
12151;SDS011;6139;51.274;7.128;2022-09-27T01:56:59;10.75;;;8.75;;
12151;SDS011;6139;51.274;7.128;2022-09-27T01:58:10;12.23;;;9.37;;
12151;SDS011;6139;51.274;7.128;2022-09-27T01:59:17;10.83;;;8.47;;
12151;SDS011;6139;51.274;7.128;2022-09-27T02:00:30;9.30;;;8.23;;
12151;SDS011;6139;51.274;7.128;2022-09-27T02:01:34;9.50;;;8.50;;
12151;SDS011;6139;51.274;7.128;2022-09-27T02:02:39;11.27;;;8.63;;
12151;SDS011;6139;51.274;7.128;2022-09-27T02:04:03;10.65;;;8.80;;
12151;SDS011;6139;51.274;7.128;2022-09-27T02:05:13;10.35;;;9.25;;
12151;SDS011;6139;51.274;7.128;2022-09-27T02:06:18;10.55;;;8.70;;
12151;SDS011;6139;51.274;7.128;2022-09-27T02:07:33;13.88;;;10.05;;
12151;SDS011;6139;51.274;7.128;2022-09-27T02:08:42;11.85;;;10.30;;
12151;SDS011;6139;51.274;7.128;2022-09-27T02:09:56;14.63;;;9.87;;
12151;SDS011;6139;51.274;7.128;2022-09-27T02:11:13;13.30;;;9.73;;
12151;SDS011;6139;51.274;7.128;2022-09-27T02:12:22;11.27;;;9.45;;
12151;SDS011;6139;51.274;7.128;2022-09-27T02:13:31;12.52;;;9.23;;
12151;SDS011;6139;51.274;7.128;2022-09-27T02:14:59;12.90;;;9.18;;
12151;SDS011;6139;51.274;7.128;2022-09-27T02:16:09;11.90;;;9.32;;
12151;SDS011;6139;51.274;7.128;2022-09-27T02:17:24;13.43;;;9.55;;
12151;SDS011;6139;51.274;7.128;2022-09-27T02:18:33;16.67;;;9.50;;
12151;SDS011;6139;51.274;7.128;2022-09-27T02:19:40;14.43;;;10.40;;
12151;SDS011;6139;51.274;7.128;2022-09-27T02:20:57;13.18;;;9.80;;
12151;SDS011;6139;51.274;7.128;2022-09-27T02:22:04;12.32;;;9.90;;
12151;SDS011;6139;51.274;7.128;2022-09-27T02:23:14;13.07;;;10.37;;
12151;SDS011;6139;51.274;7.128;2022-09-27T02:24:23;14.85;;;10.40;;
12151;SDS011;6139;51.274;7.128;2022-09-27T02:25:34;10.87;;;9.77;;
12151;SDS011;6139;51.274;7.128;2022-09-27T02:26:42;11.77;;;9.55;;
12151;SDS011;6139;51.274;7.128;2022-09-27T02:27:50;13.95;;;8.98;;
12151;SDS011;6139;51.274;7.128;2022-09-27T02:29:04;11.30;;;9.77;;
12151;SDS011;6139;51.274;7.128;2022-09-27T02:30:17;12.18;;;9.38;;
12151;SDS011;6139;51.274;7.128;2022-09-27T02:31:29;11.48;;;8.52;;
12151;SDS011;6139;51.274;7.128;2022-09-27T02:32:32;10.57;;;9.27;;
12151;SDS011;6139;51.274;7.128;2022-09-27T02:33:35;13.25;;;9.85;;
12151;SDS011;6139;51.274;7.128;2022-09-27T02:34:40;11.70;;;9.57;;
12151;SDS011;6139;51.274;7.128;2022-09-27T02:35:45;12.82;;;9.73;;
12151;SDS011;6139;51.274;7.128;2022-09-27T02:36:46;9.82;;;8.25;;
12151;SDS011;6139;51.274;7.128;2022-09-27T02:37:49;13.50;;;8.93;;
12151;SDS011;6139;51.274;7.128;2022-09-27T02:38:51;11.07;;;9.20;;
12151;SDS011;6139;51.274;7.128;2022-09-27T02:39:55;14.38;;;8.63;;
12151;SDS011;6139;51.274;7.128;2022-09-27T02:40:57;11.07;;;8.07;;
12151;SDS011;6139;51.274;7.128;2022-09-27T02:41:59;12.73;;;8.87;;
12151;SDS011;6139;51.274;7.128;2022-09-27T02:43:01;10.35;;;9.25;;
12151;SDS011;6139;51.274;7.128;2022-09-27T02:44:04;9.57;;;8.55;;
12151;SDS011;6139;51.274;7.128;2022-09-27T02:45:09;13.95;;;9.32;;
12151;SDS011;6139;51.274;7.128;2022-09-27T02:46:18;13.63;;;8.50;;
12151;SDS011;6139;51.274;7.128;2022-09-27T02:47:47;10.27;;;7.65;;
12151;SDS011;6139;51.274;7.128;2022-09-27T02:49:01;12.57;;;8.67;;
12151;SDS011;6139;51.274;7.128;2022-09-27T02:50:20;12.52;;;9.10;;
12151;SDS011;6139;51.274;7.128;2022-09-27T02:51:40;12.32;;;9.18;;
12151;SDS011;6139;51.274;7.128;2022-09-27T02:52:49;10.93;;;8.90;;
12151;SDS011;6139;51.274;7.128;2022-09-27T02:54:11;10.65;;;8.52;;
12151;SDS011;6139;51.274;7.128;2022-09-27T02:55:39;13.60;;;9.05;;
12151;SDS011;6139;51.274;7.128;2022-09-27T02:57:10;13.57;;;9.00;;
12151;SDS011;6139;51.274;7.128;2022-09-27T02:58:42;11.32;;;9.13;;
12151;SDS011;6139;51.274;7.128;2022-09-27T03:00:05;13.27;;;9.32;;
12151;SDS011;6139;51.274;7.128;2022-09-27T03:01:26;15.18;;;9.57;;
12151;SDS011;6139;51.274;7.128;2022-09-27T03:02:42;15.23;;;9.80;;
12151;SDS011;6139;51.274;7.128;2022-09-27T03:04:08;12.88;;;9.50;;
12151;SDS011;6139;51.274;7.128;2022-09-27T03:05:16;15.75;;;9.85;;
12151;SDS011;6139;51.274;7.128;2022-09-27T03:06:21;12.65;;;9.48;;
12151;SDS011;6139;51.274;7.128;2022-09-27T03:07:23;13.88;;;10.70;;
12151;SDS011;6139;51.274;7.128;2022-09-27T03:08:26;14.90;;;11.07;;
12151;SDS011;6139;51.274;7.128;2022-09-27T03:09:28;14.32;;;11.50;;
12151;SDS011;6139;51.274;7.128;2022-09-27T03:10:41;19.02;;;11.55;;
12151;SDS011;6139;51.274;7.128;2022-09-27T03:11:42;14.82;;;11.45;;
12151;SDS011;6139;51.274;7.128;2022-09-27T03:12:44;14.80;;;11.75;;
12151;SDS011;6139;51.274;7.128;2022-09-27T03:13:45;13.40;;;11.73;;
12151;SDS011;6139;51.274;7.128;2022-09-27T03:14:48;16.77;;;11.87;;
12151;SDS011;6139;51.274;7.128;2022-09-27T03:16:15;17.85;;;11.80;;
12151;SDS011;6139;51.274;7.128;2022-09-27T03:17:38;15.13;;;12.20;;
12151;SDS011;6139;51.274;7.128;2022-09-27T03:19:01;13.73;;;11.20;;
12151;SDS011;6139;51.274;7.128;2022-09-27T03:20:22;14.97;;;11.50;;
12151;SDS011;6139;51.274;7.128;2022-09-27T03:21:35;14.50;;;11.27;;
12151;SDS011;6139;51.274;7.128;2022-09-27T03:22:37;14.20;;;11.20;;
12151;SDS011;6139;51.274;7.128;2022-09-27T03:23:38;12.98;;;11.52;;
12151;SDS011;6139;51.274;7.128;2022-09-27T03:24:40;14.33;;;11.73;;
12151;SDS011;6139;51.274;7.128;2022-09-27T03:25:42;16.42;;;11.80;;
12151;SDS011;6139;51.274;7.128;2022-09-27T03:26:46;14.57;;;11.90;;
12151;SDS011;6139;51.274;7.128;2022-09-27T03:27:47;14.23;;;11.40;;
12151;SDS011;6139;51.274;7.128;2022-09-27T03:28:49;12.23;;;10.88;;
12151;SDS011;6139;51.274;7.128;2022-09-27T03:29:50;11.68;;;10.40;;
12151;SDS011;6139;51.274;7.128;2022-09-27T03:30:52;12.52;;;10.55;;
12151;SDS011;6139;51.274;7.128;2022-09-27T03:32:23;11.88;;;10.18;;
12151;SDS011;6139;51.274;7.128;2022-09-27T03:33:48;11.47;;;9.70;;
12151;SDS011;6139;51.274;7.128;2022-09-27T03:34:52;10.50;;;8.30;;
12151;SDS011;6139;51.274;7.128;2022-09-27T03:35:54;11.67;;;8.23;;
12151;SDS011;6139;51.274;7.128;2022-09-27T03:36:56;9.50;;;8.40;;
12151;SDS011;6139;51.274;7.128;2022-09-27T03:37:58;9.77;;;8.77;;
12151;SDS011;6139;51.274;7.128;2022-09-27T03:38:59;10.00;;;8.63;;
12151;SDS011;6139;51.274;7.128;2022-09-27T03:40:01;10.67;;;8.77;;
12151;SDS011;6139;51.274;7.128;2022-09-27T03:41:03;13.02;;;8.80;;
12151;SDS011;6139;51.274;7.128;2022-09-27T03:42:05;9.45;;;8.20;;
12151;SDS011;6139;51.274;7.128;2022-09-27T03:43:06;11.20;;;8.80;;
12151;SDS011;6139;51.274;7.128;2022-09-27T03:44:09;10.52;;;8.73;;
12151;SDS011;6139;51.274;7.128;2022-09-27T03:45:10;10.20;;;9.00;;
12151;SDS011;6139;51.274;7.128;2022-09-27T03:46:12;10.70;;;9.00;;
12151;SDS011;6139;51.274;7.128;2022-09-27T03:47:13;12.20;;;10.15;;
12151;SDS011;6139;51.274;7.128;2022-09-27T03:48:15;13.20;;;10.17;;
12151;SDS011;6139;51.274;7.128;2022-09-27T03:49:16;12.00;;;9.02;;
12151;SDS011;6139;51.274;7.128;2022-09-27T03:50:20;12.25;;;10.20;;
12151;SDS011;6139;51.274;7.128;2022-09-27T03:51:23;12.57;;;9.88;;
12151;SDS011;6139;51.274;7.128;2022-09-27T03:52:24;14.57;;;10.88;;
12151;SDS011;6139;51.274;7.128;2022-09-27T03:53:26;13.60;;;11.45;;
12151;SDS011;6139;51.274;7.128;2022-09-27T03:54:27;14.00;;;11.32;;
12151;SDS011;6139;51.274;7.128;2022-09-27T03:55:29;14.55;;;10.35;;
12151;SDS011;6139;51.274;7.128;2022-09-27T03:56:30;16.85;;;11.35;;
12151;SDS011;6139;51.274;7.128;2022-09-27T03:57:33;13.25;;;10.07;;
12151;SDS011;6139;51.274;7.128;2022-09-27T03:58:33;12.77;;;10.23;;
12151;SDS011;6139;51.274;7.128;2022-09-27T03:59:37;12.27;;;10.30;;
12151;SDS011;6139;51.274;7.128;2022-09-27T04:00:56;13.60;;;10.63;;
12151;SDS011;6139;51.274;7.128;2022-09-27T04:01:59;11.90;;;10.60;;
12151;SDS011;6139;51.274;7.128;2022-09-27T04:03:20;13.52;;;10.52;;
12151;SDS011;6139;51.274;7.128;2022-09-27T04:04:41;11.63;;;10.13;;
12151;SDS011;6139;51.274;7.128;2022-09-27T04:05:44;11.45;;;10.25;;
12151;SDS011;6139;51.274;7.128;2022-09-27T04:06:50;15.20;;;10.80;;
12151;SDS011;6139;51.274;7.128;2022-09-27T04:07:51;12.05;;;10.00;;
12151;SDS011;6139;51.274;7.128;2022-09-27T04:08:54;11.45;;;9.85;;
12151;SDS011;6139;51.274;7.128;2022-09-27T04:09:57;11.95;;;10.07;;
12151;SDS011;6139;51.274;7.128;2022-09-27T04:10:59;11.80;;;9.43;;
12151;SDS011;6139;51.274;7.128;2022-09-27T04:12:01;11.68;;;10.35;;
12151;SDS011;6139;51.274;7.128;2022-09-27T04:13:03;12.63;;;9.80;;
12151;SDS011;6139;51.274;7.128;2022-09-27T04:14:10;11.70;;;9.50;;
12151;SDS011;6139;51.274;7.128;2022-09-27T04:15:27;9.48;;;8.55;;
12151;SDS011;6139;51.274;7.128;2022-09-27T04:16:34;10.07;;;7.68;;
12151;SDS011;6139;51.274;7.128;2022-09-27T04:18:01;8.45;;;6.55;;
12151;SDS011;6139;51.274;7.128;2022-09-27T04:19:06;7.50;;;5.80;;
12151;SDS011;6139;51.274;7.128;2022-09-27T04:20:10;5.68;;;5.18;;
12151;SDS011;6139;51.274;7.128;2022-09-27T04:21:16;6.67;;;5.10;;
12151;SDS011;6139;51.274;7.128;2022-09-27T04:22:23;5.90;;;5.20;;
12151;SDS011;6139;51.274;7.128;2022-09-27T04:23:25;6.70;;;4.43;;
12151;SDS011;6139;51.274;7.128;2022-09-27T04:24:27;6.07;;;4.20;;
12151;SDS011;6139;51.274;7.128;2022-09-27T04:25:49;5.57;;;4.50;;
12151;SDS011;6139;51.274;7.128;2022-09-27T04:27:17;5.57;;;4.25;;
12151;SDS011;6139;51.274;7.128;2022-09-27T04:28:23;7.40;;;3.78;;
12151;SDS011;6139;51.274;7.128;2022-09-27T04:29:25;7.25;;;4.00;;
12151;SDS011;6139;51.274;7.128;2022-09-27T04:30:28;5.10;;;4.60;;
12151;SDS011;6139;51.274;7.128;2022-09-27T04:31:48;4.30;;;3.90;;
12151;SDS011;6139;51.274;7.128;2022-09-27T04:33:08;5.35;;;3.80;;
12151;SDS011;6139;51.274;7.128;2022-09-27T04:34:28;6.10;;;3.87;;
12151;SDS011;6139;51.274;7.128;2022-09-27T04:35:55;5.50;;;3.50;;
12151;SDS011;6139;51.274;7.128;2022-09-27T04:37:29;5.60;;;4.20;;
12151;SDS011;6139;51.274;7.128;2022-09-27T04:38:35;6.38;;;3.67;;
12151;SDS011;6139;51.274;7.128;2022-09-27T04:39:36;7.28;;;3.85;;
12151;SDS011;6139;51.274;7.128;2022-09-27T04:40:39;9.23;;;3.97;;
12151;SDS011;6139;51.274;7.128;2022-09-27T04:41:41;5.75;;;3.83;;
12151;SDS011;6139;51.274;7.128;2022-09-27T04:42:44;4.90;;;3.80;;
12151;SDS011;6139;51.274;7.128;2022-09-27T04:43:45;4.45;;;3.80;;
12151;SDS011;6139;51.274;7.128;2022-09-27T04:44:47;7.63;;;3.65;;
12151;SDS011;6139;51.274;7.128;2022-09-27T04:45:48;6.57;;;3.50;;
12151;SDS011;6139;51.274;7.128;2022-09-27T04:46:51;4.90;;;3.63;;
12151;SDS011;6139;51.274;7.128;2022-09-27T04:47:52;4.25;;;3.35;;
12151;SDS011;6139;51.274;7.128;2022-09-27T04:48:54;5.40;;;3.38;;
12151;SDS011;6139;51.274;7.128;2022-09-27T04:49:56;5.13;;;3.45;;
12151;SDS011;6139;51.274;7.128;2022-09-27T04:50:57;5.43;;;3.83;;
12151;SDS011;6139;51.274;7.128;2022-09-27T04:52:01;8.10;;;3.73;;
12151;SDS011;6139;51.274;7.128;2022-09-27T04:53:03;5.38;;;3.60;;
12151;SDS011;6139;51.274;7.128;2022-09-27T04:54:06;5.13;;;4.03;;
12151;SDS011;6139;51.274;7.128;2022-09-27T04:55:11;8.30;;;3.60;;
12151;SDS011;6139;51.274;7.128;2022-09-27T04:56:13;5.70;;;3.67;;
12151;SDS011;6139;51.274;7.128;2022-09-27T04:57:15;5.57;;;4.00;;
12151;SDS011;6139;51.274;7.128;2022-09-27T04:58:17;5.47;;;3.60;;
12151;SDS011;6139;51.274;7.128;2022-09-27T04:59:18;4.38;;;3.50;;
12151;SDS011;6139;51.274;7.128;2022-09-27T05:00:20;5.90;;;3.70;;
12151;SDS011;6139;51.274;7.128;2022-09-27T05:01:26;5.25;;;3.70;;
12151;SDS011;6139;51.274;7.128;2022-09-27T05:02:41;5.47;;;3.27;;
12151;SDS011;6139;51.274;7.128;2022-09-27T05:04:09;5.60;;;4.00;;
12151;SDS011;6139;51.274;7.128;2022-09-27T05:05:14;3.90;;;3.53;;
12151;SDS011;6139;51.274;7.128;2022-09-27T05:06:17;7.28;;;3.90;;
12151;SDS011;6139;51.274;7.128;2022-09-27T05:07:19;5.30;;;4.05;;
12151;SDS011;6139;51.274;7.128;2022-09-27T05:08:28;5.03;;;3.47;;
12151;SDS011;6139;51.274;7.128;2022-09-27T05:09:55;6.22;;;3.60;;
12151;SDS011;6139;51.274;7.128;2022-09-27T05:10:59;5.68;;;3.60;;
12151;SDS011;6139;51.274;7.128;2022-09-27T05:12:00;5.32;;;3.35;;
12151;SDS011;6139;51.274;7.128;2022-09-27T05:13:06;4.77;;;3.50;;
12151;SDS011;6139;51.274;7.128;2022-09-27T05:14:07;5.27;;;3.80;;
12151;SDS011;6139;51.274;7.128;2022-09-27T05:15:27;4.55;;;3.20;;
12151;SDS011;6139;51.274;7.128;2022-09-27T05:17:05;5.90;;;3.40;;
12151;SDS011;6139;51.274;7.128;2022-09-27T05:18:26;5.73;;;3.70;;
12151;SDS011;6139;51.274;7.128;2022-09-27T05:19:47;8.37;;;4.03;;
12151;SDS011;6139;51.274;7.128;2022-09-27T05:21:00;7.15;;;4.20;;
12151;SDS011;6139;51.274;7.128;2022-09-27T05:22:08;4.17;;;3.73;;
12151;SDS011;6139;51.274;7.128;2022-09-27T05:23:09;7.28;;;4.00;;
12151;SDS011;6139;51.274;7.128;2022-09-27T05:24:13;4.75;;;3.28;;
12151;SDS011;6139;51.274;7.128;2022-09-27T05:25:14;4.22;;;3.42;;
12151;SDS011;6139;51.274;7.128;2022-09-27T05:26:16;4.25;;;3.42;;
12151;SDS011;6139;51.274;7.128;2022-09-27T05:27:18;5.78;;;3.65;;
12151;SDS011;6139;51.274;7.128;2022-09-27T05:28:20;4.28;;;3.58;;
12151;SDS011;6139;51.274;7.128;2022-09-27T05:29:21;5.80;;;3.50;;
12151;SDS011;6139;51.274;7.128;2022-09-27T05:30:37;6.57;;;3.45;;
12151;SDS011;6139;51.274;7.128;2022-09-27T05:31:45;6.00;;;3.63;;
12151;SDS011;6139;51.274;7.128;2022-09-27T05:32:46;7.60;;;3.40;;
12151;SDS011;6139;51.274;7.128;2022-09-27T05:34:16;3.60;;;3.30;;
12151;SDS011;6139;51.274;7.128;2022-09-27T05:35:30;4.23;;;3.43;;
12151;SDS011;6139;51.274;7.128;2022-09-27T05:36:33;6.67;;;3.40;;
12151;SDS011;6139;51.274;7.128;2022-09-27T05:37:34;5.83;;;3.43;;
12151;SDS011;6139;51.274;7.128;2022-09-27T05:38:37;5.23;;;3.27;;
12151;SDS011;6139;51.274;7.128;2022-09-27T05:39:42;4.40;;;3.13;;
12151;SDS011;6139;51.274;7.128;2022-09-27T05:40:43;6.47;;;3.03;;
12151;SDS011;6139;51.274;7.128;2022-09-27T05:41:46;3.10;;;2.80;;
12151;SDS011;6139;51.274;7.128;2022-09-27T05:42:50;2.80;;;2.50;;
12151;SDS011;6139;51.274;7.128;2022-09-27T05:43:52;5.57;;;2.83;;
12151;SDS011;6139;51.274;7.128;2022-09-27T05:44:53;4.20;;;2.75;;
12151;SDS011;6139;51.274;7.128;2022-09-27T05:45:56;4.22;;;2.83;;
12151;SDS011;6139;51.274;7.128;2022-09-27T05:46:59;3.63;;;2.47;;
12151;SDS011;6139;51.274;7.128;2022-09-27T05:48:02;7.18;;;2.35;;
12151;SDS011;6139;51.274;7.128;2022-09-27T05:49:08;3.70;;;2.50;;
12151;SDS011;6139;51.274;7.128;2022-09-27T05:50:10;4.38;;;2.60;;
12151;SDS011;6139;51.274;7.128;2022-09-27T05:51:12;3.70;;;2.43;;
12151;SDS011;6139;51.274;7.128;2022-09-27T05:52:14;4.07;;;2.50;;
12151;SDS011;6139;51.274;7.128;2022-09-27T05:53:15;4.33;;;2.43;;
12151;SDS011;6139;51.274;7.128;2022-09-27T05:54:17;5.20;;;2.70;;
12151;SDS011;6139;51.274;7.128;2022-09-27T05:55:20;4.13;;;2.30;;
12151;SDS011;6139;51.274;7.128;2022-09-27T05:56:24;3.43;;;2.60;;
12151;SDS011;6139;51.274;7.128;2022-09-27T05:57:52;4.95;;;2.67;;
12151;SDS011;6139;51.274;7.128;2022-09-27T05:58:58;4.53;;;2.10;;
12151;SDS011;6139;51.274;7.128;2022-09-27T06:00:04;5.53;;;2.73;;
12151;SDS011;6139;51.274;7.128;2022-09-27T06:01:12;4.27;;;2.60;;
12151;SDS011;6139;51.274;7.128;2022-09-27T06:02:34;3.87;;;2.23;;
12151;SDS011;6139;51.274;7.128;2022-09-27T06:03:37;4.57;;;2.42;;
12151;SDS011;6139;51.274;7.128;2022-09-27T06:04:59;4.40;;;2.60;;
12151;SDS011;6139;51.274;7.128;2022-09-27T06:06:21;8.27;;;2.73;;
12151;SDS011;6139;51.274;7.128;2022-09-27T06:07:28;4.60;;;2.30;;
12151;SDS011;6139;51.274;7.128;2022-09-27T06:08:31;3.70;;;2.43;;
12151;SDS011;6139;51.274;7.128;2022-09-27T06:09:34;3.40;;;2.50;;
12151;SDS011;6139;51.274;7.128;2022-09-27T06:10:38;2.20;;;2.00;;
12151;SDS011;6139;51.274;7.128;2022-09-27T06:11:42;3.63;;;2.10;;
12151;SDS011;6139;51.274;7.128;2022-09-27T06:12:44;3.45;;;2.05;;
12151;SDS011;6139;51.274;7.128;2022-09-27T06:14:05;4.80;;;2.40;;
12151;SDS011;6139;51.274;7.128;2022-09-27T06:15:15;4.50;;;2.08;;
12151;SDS011;6139;51.274;7.128;2022-09-27T06:16:18;2.27;;;2.07;;
12151;SDS011;6139;51.274;7.128;2022-09-27T06:17:20;3.10;;;2.00;;
12151;SDS011;6139;51.274;7.128;2022-09-27T06:18:22;4.70;;;2.40;;
12151;SDS011;6139;51.274;7.128;2022-09-27T06:19:24;5.53;;;2.30;;
12151;SDS011;6139;51.274;7.128;2022-09-27T06:20:26;6.33;;;2.27;;
12151;SDS011;6139;51.274;7.128;2022-09-27T06:21:27;5.15;;;2.40;;
12151;SDS011;6139;51.274;7.128;2022-09-27T06:22:31;4.70;;;2.40;;
12151;SDS011;6139;51.274;7.128;2022-09-27T06:23:34;3.50;;;2.27;;
12151;SDS011;6139;51.274;7.128;2022-09-27T06:24:45;3.67;;;2.13;;
12151;SDS011;6139;51.274;7.128;2022-09-27T06:25:54;4.53;;;2.13;;
12151;SDS011;6139;51.274;7.128;2022-09-27T06:27:05;2.53;;;1.90;;
12151;SDS011;6139;51.274;7.128;2022-09-27T06:28:43;2.63;;;1.98;;
12151;SDS011;6139;51.274;7.128;2022-09-27T06:29:46;3.40;;;2.27;;
12151;SDS011;6139;51.274;7.128;2022-09-27T06:30:57;4.83;;;2.00;;
12151;SDS011;6139;51.274;7.128;2022-09-27T06:32:05;3.38;;;2.30;;
12151;SDS011;6139;51.274;7.128;2022-09-27T06:33:23;2.85;;;1.90;;
12151;SDS011;6139;51.274;7.128;2022-09-27T06:34:27;4.22;;;2.17;;
12151;SDS011;6139;51.274;7.128;2022-09-27T06:35:28;2.77;;;2.20;;
12151;SDS011;6139;51.274;7.128;2022-09-27T06:36:31;2.67;;;2.07;;
12151;SDS011;6139;51.274;7.128;2022-09-27T06:37:33;3.03;;;2.57;;
12151;SDS011;6139;51.274;7.128;2022-09-27T06:38:35;4.72;;;2.30;;
12151;SDS011;6139;51.274;7.128;2022-09-27T06:39:48;3.35;;;1.92;;
12151;SDS011;6139;51.274;7.128;2022-09-27T06:41:19;3.10;;;2.00;;
12151;SDS011;6139;51.274;7.128;2022-09-27T06:42:39;4.27;;;2.20;;
12151;SDS011;6139;51.274;7.128;2022-09-27T06:43:50;3.78;;;1.98;;
12151;SDS011;6139;51.274;7.128;2022-09-27T06:45:10;3.70;;;2.08;;
12151;SDS011;6139;51.274;7.128;2022-09-27T06:46:12;4.53;;;2.20;;
12151;SDS011;6139;51.274;7.128;2022-09-27T06:47:23;3.40;;;2.13;;
12151;SDS011;6139;51.274;7.128;2022-09-27T06:48:42;2.65;;;2.10;;
12151;SDS011;6139;51.274;7.128;2022-09-27T06:49:49;3.28;;;2.40;;
12151;SDS011;6139;51.274;7.128;2022-09-27T06:50:52;3.90;;;2.50;;
12151;SDS011;6139;51.274;7.128;2022-09-27T06:51:57;5.80;;;2.50;;
12151;SDS011;6139;51.274;7.128;2022-09-27T06:52:59;3.92;;;2.35;;
12151;SDS011;6139;51.274;7.128;2022-09-27T06:54:00;3.30;;;2.17;;
12151;SDS011;6139;51.274;7.128;2022-09-27T06:55:03;4.72;;;2.30;;